Time;durP1;ratioP1;P1;durP2;ratioP2;P2;SDS_P1;SDS_P2;PMS_P1;PMS_P2;Temp;Humidity;BMP_temperature;BMP_pressure;BME280_temperature;BME280_humidity;BME280_pressure;Samples;Min_cycle;Max_cycle;Signal;HPM_P1;HPM_P2
2021/08/08 00:00:49;;;;;;;3.37;1.62;;;;;;;17.73;73.86;100405.95;1735167;82;21011;-39
2021/08/08 00:03:15;;;;;;;6.60;1.57;;;;;;;17.70;74.03;100413.48;1735057;81;20921;-40
2021/08/08 00:05:42;;;;;;;1.77;1.50;;;;;;;17.66;74.15;100410.16;1735096;82;21537;-40
2021/08/08 00:08:12;;;;;;;3.52;1.70;;;;;;;17.67;74.36;100413.64;1714436;82;21463;-41
2021/08/08 00:10:39;;;;;;;4.62;1.90;;;;;;;17.67;73.94;100405.30;1735289;82;20941;-39
2021/08/08 00:13:05;;;;;;;1.70;1.57;;;;;;;17.70;74.08;100406.94;1734908;81;20976;-40
2021/08/08 00:15:34;;;;;;;5.05;1.85;;;;;;;17.69;74.33;100392.16;1734958;82;20921;-40
2021/08/08 00:18:03;;;;;;;4.25;1.62;;;;;;;17.67;74.28;100398.77;1714037;82;21129;-39
2021/08/08 00:20:32;;;;;;;1.80;1.70;;;;;;;17.63;74.37;100391.16;1714675;82;20894;-40
2021/08/08 00:22:58;;;;;;;1.77;1.67;;;;;;;17.60;74.39;100387.39;1714153;82;22168;-41
2021/08/08 00:25:25;;;;;;;4.10;1.82;;;;;;;17.59;74.50;100379.98;1735146;82;21040;-40
2021/08/08 00:27:52;;;;;;;2.75;2.05;;;;;;;17.55;74.86;100370.59;1736821;82;20897;-39
2021/08/08 00:30:18;;;;;;;2.62;1.70;;;;;;;17.49;74.82;100375.66;1749193;82;21133;-40
2021/08/08 00:32:45;;;;;;;2.50;1.65;;;;;;;17.45;74.78;100376.73;1749227;82;20956;-40
2021/08/08 00:35:13;;;;;;;4.58;1.72;;;;;;;17.42;74.85;100369.04;1747957;82;20983;-39
2021/08/08 00:37:44;;;;;;;2.40;1.90;;;;;;;17.40;75.01;100370.89;1749309;82;20928;-39
2021/08/08 00:40:13;;;;;;;1.60;1.42;;;;;;;17.38;75.14;100371.42;1749073;82;21047;-40
2021/08/08 00:42:42;;;;;;;3.42;1.60;;;;;;;17.35;75.16;100382.03;1749255;82;21677;-40
2021/08/08 00:45:10;;;;;;;1.60;1.50;;;;;;;17.31;75.25;100384.42;1749029;82;21497;-40
2021/08/08 00:47:37;;;;;;;1.77;1.52;;;;;;;17.29;75.16;100384.92;1721741;82;20912;-40
2021/08/08 00:50:05;;;;;;;1.92;1.50;;;;;;;17.27;75.43;100383.70;1749079;82;20959;-40
2021/08/08 00:52:33;;;;;;;3.62;1.70;;;;;;;17.23;75.51;100377.77;1749336;82;21009;-41
2021/08/08 00:55:03;;;;;;;2.58;1.87;;;;;;;17.20;75.78;100379.22;1749212;82;20983;-40
2021/08/08 00:57:30;;;;;;;2.65;1.55;;;;;;;17.19;76.06;100376.22;1749083;80;20939;-39
2021/08/08 00:59:57;;;;;;;2.37;1.98;;;;;;;17.17;76.15;100372.83;1749256;82;20964;-41
2021/08/08 01:02:23;;;;;;;6.03;1.80;;;;;;;17.14;75.82;100363.83;1749014;82;20972;-40
2021/08/08 01:04:56;;;;;;;6.00;1.65;;;;;;;17.12;76.25;100356.96;1749182;81;20996;-41
2021/08/08 01:07:26;;;;;;;6.45;1.80;;;;;;;17.07;76.45;100354.11;1748595;82;21155;-40
2021/08/08 01:09:57;;;;;;;4.97;1.67;;;;;;;17.05;76.36;100353.78;1749102;82;20991;-41
2021/08/08 01:12:23;;;;;;;1.55;1.37;;;;;;;17.01;76.52;100353.55;1749188;82;21512;-41
2021/08/08 01:14:52;;;;;;;3.40;1.75;;;;;;;16.98;77.13;100345.41;1749233;82;20982;-40
2021/08/08 01:17:19;;;;;;;1.27;1.27;;;;;;;16.99;76.77;100346.23;1749382;82;20971;-41
2021/08/08 01:20:06;;;;;;;4.30;1.67;;;;;;;16.96;76.60;100338.06;1749247;82;21142;-40
2021/08/08 01:22:35;;;;;;;6.08;1.85;;;;;;;16.92;76.47;100333.43;1748071;82;20960;-39
2021/08/08 01:25:03;;;;;;;2.00;1.52;;;;;;;16.89;76.59;100341.42;1749184;82;20932;-40
2021/08/08 01:27:30;;;;;;;2.77;2.05;;;;;;;16.88;76.75;100343.64;1721665;82;20980;-41
2021/08/08 01:29:58;;;;;;;4.37;1.87;;;;;;;16.87;76.74;100332.80;1692938;82;21059;-40
2021/08/08 01:32:25;;;;;;;2.77;1.85;;;;;;;16.85;76.86;100329.42;1745585;82;21196;-40
2021/08/08 01:34:51;;;;;;;4.62;1.75;;;;;;;16.83;77.11;100330.39;1745449;82;21013;-40
2021/08/08 01:37:20;;;;;;;5.12;1.55;;;;;;;16.80;77.09;100323.56;1745465;82;20897;-40
2021/08/08 01:39:55;;;;;;;2.45;1.65;;;;;;;16.78;77.33;100325.37;1745263;82;20992;-42
2021/08/08 01:42:23;;;;;;;2.08;1.75;;;;;;;16.76;77.47;100323.29;1716100;82;21219;-41
2021/08/08 01:44:53;;;;;;;3.67;1.65;;;;;;;16.71;77.45;100313.52;1745292;82;21080;-41
2021/08/08 01:47:25;;;;;;;2.33;1.80;;;;;;;16.66;77.60;100311.11;1745314;82;20948;-41
2021/08/08 01:49:52;;;;;;;2.62;1.42;;;;;;;16.62;77.86;100315.64;1745376;82;21473;-42
2021/08/08 01:52:20;;;;;;;3.50;1.90;;;;;;;16.58;78.12;100324.55;1745521;80;21643;-41
2021/08/08 01:54:49;;;;;;;3.20;1.70;;;;;;;16.55;78.07;100324.69;1745373;81;20940;-40
2021/08/08 01:57:17;;;;;;;2.25;1.60;;;;;;;16.51;78.50;100327.03;1745270;82;21701;-42
2021/08/08 01:59:45;;;;;;;2.75;1.87;;;;;;;16.49;78.51;100330.17;1745274;82;21019;-41
2021/08/08 02:02:14;;;;;;;5.72;1.55;;;;;;;16.47;78.91;100332.01;1745556;82;21120;-41
2021/08/08 02:04:43;;;;;;;3.75;1.87;;;;;;;16.46;79.16;100345.98;1745444;82;21100;-40
2021/08/08 02:07:16;;;;;;;2.25;1.72;;;;;;;16.42;79.12;100346.60;1745136;82;20980;-40
2021/08/08 02:09:46;;;;;;;2.80;1.27;;;;;;;16.42;79.24;100345.74;1745450;81;20956;-41
2021/08/08 02:12:15;;;;;;;2.42;1.80;;;;;;;16.41;79.37;100351.41;1716207;82;20971;-41
2021/08/08 02:14:42;;;;;;;2.55;1.52;;;;;;;16.41;79.16;100361.86;1745468;82;20928;-41
2021/08/08 02:17:10;;;;;;;6.05;1.65;;;;;;;16.41;79.15;100370.17;1745682;82;20987;-40
2021/08/08 02:19:39;;;;;;;4.62;1.67;;;;;;;16.40;79.12;100376.31;1745425;82;20905;-41
2021/08/08 02:22:06;;;;;;;1.92;1.40;;;;;;;16.37;79.04;100387.28;1745626;82;21041;-39
2021/08/08 02:24:35;;;;;;;2.72;1.60;;;;;;;16.35;78.98;100393.03;1744745;82;20967;-40
2021/08/08 02:27:04;;;;;;;7.15;1.67;;;;;;;16.32;79.06;100397.09;1740048;82;21474;-41
2021/08/08 02:29:31;;;;;;;2.58;1.72;;;;;;;16.31;79.01;100403.23;1739491;81;21415;-40
2021/08/08 02:31:57;;;;;;;6.05;1.80;;;;;;;16.32;78.99;100399.70;1735075;82;21000;-40
2021/08/08 02:34:30;;;;;;;4.25;1.70;;;;;;;16.32;78.94;100399.70;1734623;82;22065;-41
2021/08/08 02:36:57;;;;;;;5.72;1.92;;;;;;;16.30;79.04;100403.28;1713823;82;20980;-40
2021/08/08 02:39:23;;;;;;;3.37;1.70;;;;;;;16.31;78.98;100400.62;1735050;81;21438;-41
2021/08/08 02:41:51;;;;;;;7.65;1.62;;;;;;;16.34;79.02;100400.92;1735162;82;20980;-40
2021/08/08 02:44:19;;;;;;;1.47;1.37;;;;;;;16.34;78.98;100397.87;1735010;82;20992;-40
2021/08/08 02:46:46;;;;;;;1.77;1.67;;;;;;;16.34;78.94;100397.00;1735178;82;21152;-41
2021/08/08 02:49:13;;;;;;;1.57;1.47;;;;;;;16.35;78.98;100402.17;1735234;82;20956;-40
2021/08/08 02:51:42;;;;;;;3.20;1.67;;;;;;;16.35;78.94;100387.81;1714049;82;21012;-40
2021/08/08 02:54:11;;;;;;;4.03;1.35;;;;;;;16.35;79.02;100385.64;1735250;81;20992;-40
2021/08/08 02:56:38;;;;;;;1.60;1.47;;;;;;;16.32;79.11;100385.34;1735405;82;20996;-41
2021/08/08 02:59:05;;;;;;;1.17;1.17;;;;;;;16.32;79.09;100391.87;1735013;82;21086;-41
2021/08/08 03:01:33;;;;;;;4.05;1.40;;;;;;;16.31;79.22;100395.39;1735041;82;20968;-41
2021/08/08 03:03:59;;;;;;;4.20;1.50;;;;;;;16.30;79.15;100391.09;1734976;82;20968;-40
2021/08/08 03:06:26;;;;;;;3.35;1.52;;;;;;;16.31;79.09;100389.31;1735158;82;21016;-41
2021/08/08 03:08:54;;;;;;;3.90;1.50;;;;;;;16.30;79.09;100387.17;1735125;82;21003;-41
2021/08/08 03:11:20;;;;;;;4.05;1.20;;;;;;;16.32;79.17;100394.92;1735190;82;21852;-40
2021/08/08 03:13:47;;;;;;;2.98;1.40;;;;;;;16.30;79.26;100392.84;1734877;81;20980;-42
2021/08/08 03:16:14;;;;;;;4.40;1.30;;;;;;;16.31;79.23;100402.37;1734999;81;20890;-40
2021/08/08 03:18:44;;;;;;;1.52;1.32;;;;;;;16.31;79.20;100406.28;1735093;82;20968;-42
2021/08/08 03:21:12;;;;;;;1.52;1.15;;;;;;;16.33;79.22;100417.06;1734948;81;22186;-40
2021/08/08 03:23:38;;;;;;;4.08;1.30;;;;;;;16.34;79.35;100415.29;1734798;82;21070;-40
2021/08/08 03:26:05;;;;;;;4.95;1.10;;;;;;;16.36;79.50;100414.77;1735251;82;20985;-41
2021/08/08 03:28:33;;;;;;;1.65;1.15;;;;;;;16.38;79.41;100414.23;1735393;81;20924;-39
2021/08/08 03:30:59;;;;;;;1.77;1.40;;;;;;;16.40;79.47;100407.66;1749058;82;21022;-39
2021/08/08 03:33:26;;;;;;;3.80;1.12;;;;;;;16.42;79.55;100421.49;1749223;82;20936;-40
2021/08/08 03:35:53;;;;;;;1.30;1.20;;;;;;;16.43;79.60;100422.75;1749312;82;21878;-39
2021/08/08 03:38:19;;;;;;;4.47;2.33;;;;;;;16.47;79.76;100426.05;1749085;82;21443;-40
2021/08/08 03:40:46;;;;;;;42.55;18.65;;;;;;;16.49;79.61;100428.14;1749175;82;21466;-39
2021/08/08 03:43:13;;;;;;;95.25;38.33;;;;;;;16.54;79.67;100431.87;1749179;82;20933;-41
2021/08/08 03:45:42;;;;;;;95.25;39.83;;;;;;;16.59;79.51;100430.76;1749194;82;21007;-39
2021/08/08 03:48:10;;;;;;;39.45;16.23;;;;;;;16.66;79.46;100433.92;1748978;82;20889;-41
2021/08/08 03:50:39;;;;;;;11.20;5.50;;;;;;;16.76;79.36;100439.15;1749158;82;21514;-39
2021/08/08 03:53:06;;;;;;;4.53;2.15;;;;;;;16.84;79.34;100427.05;1749082;82;20991;-40
2021/08/08 03:55:32;;;;;;;1.55;1.30;;;;;;;16.92;79.13;100422.75;1749255;82;21015;-41
2021/08/08 03:57:59;;;;;;;1.52;1.10;;;;;;;16.99;78.66;100417.69;1749010;82;21501;-39
2021/08/08 04:00:26;;;;;;;5.12;1.20;;;;;;;17.08;78.72;100419.87;1749167;80;21816;-40
2021/08/08 04:02:54;;;;;;;2.45;1.42;;;;;;;17.22;78.62;100428.38;1748804;81;22211;-40
2021/08/08 04:05:23;;;;;;;2.15;1.30;;;;;;;17.38;78.25;100432.42;1748972;82;20953;-40
2021/08/08 04:07:49;;;;;;;1.42;1.30;;;;;;;17.52;77.53;100433.55;1749110;82;20905;-41
2021/08/08 04:10:18;;;;;;;8.15;1.40;;;;;;;17.64;77.16;100436.87;1748905;82;21018;-40
2021/08/08 04:12:46;;;;;;;4.37;1.40;;;;;;;17.78;76.79;100433.58;1748839;81;22154;-40
2021/08/08 04:15:15;;;;;;;2.70;1.12;;;;;;;17.90;76.31;100440.45;1721891;82;21039;-40
2021/08/08 04:17:42;;;;;;;1.42;1.32;;;;;;;17.99;75.69;100433.92;1749087;82;21592;-40
2021/08/08 04:20:11;;;;;;;1.87;1.35;;;;;;;18.06;75.12;100438.81;1749011;82;20972;-41
2021/08/08 04:22:38;;;;;;;3.12;1.30;;;;;;;18.17;74.74;100443.96;1749420;82;20932;-40
2021/08/08 04:25:07;;;;;;;1.67;1.20;;;;;;;18.20;74.01;100437.25;1749115;82;21749;-40
2021/08/08 04:27:34;;;;;;;4.05;1.98;;;;;;;18.23;74.12;100450.19;1749109;82;20948;-41
2021/08/08 04:30:00;;;;;;;7.25;1.50;;;;;;;18.22;74.11;100438.02;1742310;81;20992;-41
2021/08/08 04:32:29;;;;;;;7.87;1.72;;;;;;;18.21;73.90;100433.70;1714000;82;21032;-39
2021/08/08 04:34:56;;;;;;;5.40;1.42;;;;;;;18.22;74.13;100431.02;1734923;81;20976;-42
2021/08/08 04:37:22;;;;;;;1.72;1.40;;;;;;;18.30;74.16;100428.47;1735260;82;21956;-41
2021/08/08 04:39:50;;;;;;;1.40;1.30;;;;;;;18.43;73.83;100428.67;1734966;82;20968;-40
2021/08/08 04:42:17;;;;;;;2.50;1.55;;;;;;;18.59;73.07;100435.27;1735393;82;20977;-41
2021/08/08 04:45:24;;;;;;;2.70;1.92;;;;;;;18.85;72.79;100436.53;1797519;79;22777;-41
2021/08/08 04:47:51;;;;;;;1.75;1.65;;;;;;;18.99;72.17;100441.52;1757150;81;21510;-40
2021/08/08 04:50:19;;;;;;;2.27;2.08;;;;;;;19.08;71.79;100444.97;1736768;82;21051;-40
2021/08/08 04:52:46;;;;;;;4.60;2.05;;;;;;;19.16;70.37;100454.56;1748988;82;20999;-40
2021/08/08 04:55:14;;;;;;;5.45;1.92;;;;;;;19.21;70.61;100463.02;1749063;81;21011;-40
2021/08/08 04:57:41;;;;;;;2.47;1.60;;;;;;;19.38;70.72;100456.84;1748934;82;20920;-40
2021/08/08 05:00:11;;;;;;;1.90;1.80;;;;;;;19.60;69.71;100456.95;1719730;82;21509;-39
2021/08/08 05:02:46;;;;;;;2.42;1.47;;;;;;;19.77;69.03;100457.30;1744424;81;22246;-39
2021/08/08 05:05:13;;;;;;;2.17;1.95;;;;;;;19.92;68.63;100456.09;1719457;82;21018;-41
2021/08/08 05:07:41;;;;;;;1.57;1.25;;;;;;;20.08;67.55;100449.47;1749341;82;21003;-42
2021/08/08 05:10:11;;;;;;;6.15;1.80;;;;;;;20.13;66.93;100449.21;1748979;82;20940;-40
2021/08/08 05:12:37;;;;;;;5.12;1.67;;;;;;;20.15;67.27;100449.97;1749431;82;20975;-41
2021/08/08 05:15:07;;;;;;;1.77;1.37;;;;;;;20.15;66.67;100442.08;1748974;81;20979;-41
2021/08/08 05:17:34;;;;;;;3.00;1.17;;;;;;;20.03;67.02;100444.48;1749210;82;20995;-40
2021/08/08 05:20:04;;;;;;;1.67;1.32;;;;;;;20.07;67.44;100439.42;1749027;80;20944;-41
2021/08/08 05:22:31;;;;;;;2.33;1.40;;;;;;;20.23;67.30;100442.47;1719536;82;21051;-41
2021/08/08 05:24:57;;;;;;;3.40;1.50;;;;;;;20.39;66.50;100447.20;1748966;82;20936;-41
2021/08/08 05:27:24;;;;;;;2.65;1.27;;;;;;;20.54;66.05;100448.50;1748821;82;22355;-41
2021/08/08 05:29:51;;;;;;;4.62;1.67;;;;;;;20.57;66.32;100444.37;1749028;82;21478;-41
2021/08/08 05:32:17;;;;;;;1.55;1.47;;;;;;;20.60;66.37;100436.78;1748954;82;21422;-41
2021/08/08 05:34:46;;;;;;;6.58;1.65;;;;;;;20.60;65.42;100440.27;1748826;82;20968;-40
2021/08/08 05:37:13;;;;;;;4.33;1.30;;;;;;;20.53;67.03;100443.73;1748891;82;20937;-42
2021/08/08 05:39:40;;;;;;;4.12;1.50;;;;;;;20.72;67.39;100448.33;1748846;81;21083;-40
2021/08/08 05:42:07;;;;;;;4.62;1.62;;;;;;;20.92;66.10;100455.02;1748782;82;21030;-41
2021/08/08 05:44:37;;;;;;;2.27;1.50;;;;;;;21.10;65.67;100464.88;1749232;81;20991;-40
2021/08/08 05:47:05;;;;;;;10.32;1.70;;;;;;;21.25;65.26;100470.48;1749596;82;20963;-40
2021/08/08 05:49:33;;;;;;;1.72;1.55;;;;;;;21.50;65.14;100470.72;1749747;82;21553;-41
2021/08/08 05:52:03;;;;;;;1.50;1.40;;;;;;;21.71;63.82;100473.77;1749748;82;21038;-42
2021/08/08 05:54:30;;;;;;;3.40;1.55;;;;;;;21.81;63.78;100470.06;1750025;82;20928;-39
2021/08/08 05:56:57;;;;;;;1.70;1.50;;;;;;;21.83;63.77;100482.66;1749202;82;20975;-40
2021/08/08 05:59:24;;;;;;;2.05;1.65;;;;;;;21.78;62.53;100480.31;1749015;82;20944;-40
2021/08/08 06:01:51;;;;;;;3.08;2.42;;;;;;;21.60;63.14;100475.75;1749210;82;20967;-41
2021/08/08 06:04:17;;;;;;;3.20;1.75;;;;;;;21.48;64.06;100473.92;1721323;82;22328;-41
2021/08/08 06:06:44;;;;;;;4.15;1.85;;;;;;;21.33;64.27;100471.31;1749081;82;21546;-40
2021/08/08 06:09:11;;;;;;;4.45;1.80;;;;;;;21.32;65.51;100464.81;1748992;82;20992;-41
2021/08/08 06:11:37;;;;;;;6.95;2.27;;;;;;;21.49;65.45;100463.27;1749442;82;20960;-40
2021/08/08 06:14:05;;;;;;;7.05;1.80;;;;;;;21.66;65.38;100454.80;1749104;80;21023;-43
2021/08/08 06:16:31;;;;;;;7.28;2.02;;;;;;;21.86;63.65;100459.23;1749205;82;21028;-41
2021/08/08 06:18:59;;;;;;;4.20;2.05;;;;;;;21.81;63.73;100459.53;1749143;82;21525;-42
2021/08/08 06:21:28;;;;;;;4.33;1.80;;;;;;;21.72;64.12;100453.06;1749309;82;21509;-42
2021/08/08 06:23:56;;;;;;;4.22;2.20;;;;;;;21.72;64.71;100446.48;1749252;82;21055;-41
2021/08/08 06:26:23;;;;;;;5.28;2.27;;;;;;;21.75;64.32;100452.86;1749201;80;20935;-41
2021/08/08 06:28:50;;;;;;;12.80;3.15;;;;;;;21.90;64.04;100452.81;1749322;82;21155;-42
2021/08/08 06:31:16;;;;;;;14.05;3.45;;;;;;;21.99;64.04;100450.87;1749284;80;20928;-42
2021/08/08 06:33:43;;;;;;;6.72;2.47;;;;;;;22.02;63.53;100444.56;1749197;82;20917;-39
2021/08/08 06:36:09;;;;;;;4.30;2.50;;;;;;;21.98;63.61;100439.95;1749299;82;20983;-40
2021/08/08 06:38:36;;;;;;;2.40;2.20;;;;;;;21.92;64.07;100446.96;1749320;82;20901;-40
2021/08/08 06:41:03;;;;;;;5.80;2.85;;;;;;;21.85;64.02;100435.98;1749097;82;21140;-42
2021/08/08 06:43:30;;;;;;;5.42;2.27;;;;;;;21.86;64.74;100440.80;1749032;80;20912;-42
2021/08/08 06:45:56;;;;;;;6.67;2.72;;;;;;;21.92;64.29;100434.62;1748774;81;21572;-42
2021/08/08 06:48:24;;;;;;;12.33;3.05;;;;;;;22.01;64.40;100421.30;1749082;82;20873;-41
2021/08/08 06:50:51;;;;;;;3.98;2.65;;;;;;;22.05;64.14;100412.73;1749037;82;20999;-40
2021/08/08 06:53:18;;;;;;;5.10;2.75;;;;;;;22.16;64.81;100409.37;1721262;82;21900;-42
2021/08/08 06:55:45;;;;;;;5.67;3.20;;;;;;;22.31;64.49;100403.52;1721036;82;21033;-41
2021/08/08 06:59:20;;;;;;;3.10;2.90;;;;;;;22.53;64.17;100401.57;1749105;80;21028;-41
2021/08/08 07:01:48;;;;;;;3.55;2.95;;;;;;;22.66;63.13;100414.28;1749053;82;20921;-41
2021/08/08 07:04:15;;;;;;;5.58;2.67;;;;;;;22.82;63.26;100415.81;1748969;80;20976;-42
2021/08/08 07:06:42;;;;;;;4.28;2.70;;;;;;;22.92;63.12;100417.33;1749017;82;21113;-90
2021/08/08 07:09:09;;;;;;;4.53;2.95;;;;;;;23.04;62.75;100421.75;1749163;82;21544;-41
2021/08/08 07:11:37;;;;;;;4.45;2.77;;;;;;;23.16;62.14;100403.33;1749488;82;20924;-42
2021/08/08 07:14:05;;;;;;;4.83;2.62;;;;;;;23.28;60.83;100409.54;1721430;82;21015;-42
2021/08/08 07:16:32;;;;;;;4.80;2.77;;;;;;;23.37;61.46;100411.53;1749285;82;21016;-41
2021/08/08 07:19:00;;;;;;;20.72;3.90;;;;;;;23.59;61.84;100412.09;1749119;82;21802;-40
2021/08/08 07:21:27;;;;;;;27.45;3.55;;;;;;;23.87;62.09;100410.48;1749219;82;20889;-40
2021/08/08 07:23:54;;;;;;;5.80;3.05;;;;;;;24.00;61.26;100404.65;1748909;82;20983;-41
2021/08/08 07:26:21;;;;;;;3.35;3.05;;;;;;;24.23;59.76;100402.91;1721183;82;21126;-42
2021/08/08 07:28:48;;;;;;;3.40;3.20;;;;;;;24.37;61.21;100400.51;1749018;82;20985;-41
2021/08/08 07:31:15;;;;;;;12.25;3.42;;;;;;;24.55;59.06;100400.05;1749051;82;21051;-40
2021/08/08 07:33:42;;;;;;;9.15;2.77;;;;;;;24.59;59.70;100402.80;1749043;80;20992;-40
2021/08/08 07:36:10;;;;;;;3.70;2.58;;;;;;;24.89;60.08;100400.53;1749177;82;20983;-40
2021/08/08 07:38:37;;;;;;;3.67;3.10;;;;;;;25.12;58.43;100398.66;1749123;82;20941;-40
2021/08/08 07:41:05;;;;;;;3.95;2.95;;;;;;;25.36;56.83;100400.27;1748863;80;21640;-41
2021/08/08 07:43:32;;;;;;;3.98;3.10;;;;;;;25.47;56.63;100396.30;1721490;82;21057;-41
2021/08/08 07:45:59;;;;;;;3.37;2.83;;;;;;;25.41;57.55;100394.14;1736997;82;20992;-41
2021/08/08 07:48:26;;;;;;;3.33;2.83;;;;;;;25.53;57.15;100392.31;1734946;82;20960;-42
2021/08/08 07:50:54;;;;;;;4.03;2.95;;;;;;;25.81;56.75;100384.20;1677599;82;21015;-43
2021/08/08 07:53:21;;;;;;;3.47;2.75;;;;;;;26.08;55.29;100378.84;1734932;81;21396;-41
2021/08/08 07:55:53;;;;;;;5.12;2.70;;;;;;;26.17;54.89;100383.88;1714160;82;21217;-41
2021/08/08 07:58:17;;;;;;;3.02;2.67;;;;;;;26.27;54.70;100390.56;1734659;82;20945;-42
2021/08/08 08:00:44;;;;;;;7.65;3.00;;;;;;;26.19;53.92;100383.77;1734781;82;20965;-41
2021/08/08 08:03:11;;;;;;;3.40;3.10;;;;;;;26.10;53.47;100380.06;1735080;82;20972;-42
2021/08/08 08:05:39;;;;;;;4.92;3.00;;;;;;;25.96;54.27;100385.22;1734965;82;20964;-43
2021/08/08 08:08:09;;;;;;;4.37;2.83;;;;;;;25.92;55.65;100389.92;1734967;82;20945;-42
2021/08/08 08:10:36;;;;;;;5.17;2.87;;;;;;;26.02;55.04;100401.92;1735382;82;21023;-42
2021/08/08 08:13:03;;;;;;;3.58;3.12;;;;;;;26.23;54.06;100407.72;1735136;82;20988;-41
2021/08/08 08:15:30;;;;;;;2.87;2.58;;;;;;;26.34;53.74;100408.95;1713893;82;21462;-41
2021/08/08 08:17:57;;;;;;;5.45;3.10;;;;;;;26.59;53.60;100406.82;1714120;82;20976;-42
2021/08/08 08:20:24;;;;;;;2.95;2.65;;;;;;;26.88;52.11;100408.75;1735312;82;21106;-42
2021/08/08 08:22:51;;;;;;;5.17;2.52;;;;;;;27.04;51.77;100412.23;1735103;82;20949;-40
2021/08/08 08:25:18;;;;;;;9.58;3.15;;;;;;;27.03;51.48;100406.58;1735318;82;20905;-40
2021/08/08 08:27:46;;;;;;;4.90;3.20;;;;;;;27.09;52.15;100410.00;1714264;82;20984;-42
2021/08/08 08:30:13;;;;;;;7.92;2.87;;;;;;;27.25;51.90;100412.59;1714045;82;20996;-42
2021/08/08 08:32:40;;;;;;;2.90;2.70;;;;;;;27.37;50.98;100415.48;1713917;82;21241;-42
2021/08/08 08:35:09;;;;;;;12.28;3.00;;;;;;;27.54;50.78;100411.31;1714316;82;21527;-41
2021/08/08 08:37:36;;;;;;;6.67;3.37;;;;;;;27.76;50.81;100400.52;1735271;82;21257;-41
2021/08/08 08:40:05;;;;;;;4.42;2.35;;;;;;;27.89;50.16;100400.21;1735375;82;20980;-40
2021/08/08 08:42:34;;;;;;;5.65;2.70;;;;;;;27.95;49.93;100404.98;1734929;82;20902;-41
2021/08/08 08:45:02;;;;;;;2.98;2.77;;;;;;;28.08;49.63;100404.16;1735075;81;21943;-40
2021/08/08 08:47:30;;;;;;;4.37;3.58;;;;;;;28.21;50.24;100390.58;1735161;82;21533;-42
2021/08/08 08:50:04;;;;;;;27.60;18.73;;;;;;;28.37;49.30;100389.95;1735071;82;20975;-41
2021/08/08 08:52:31;;;;;;;13.98;7.15;;;;;;;28.64;48.94;100402.10;1735000;81;20921;-41
2021/08/08 08:54:58;;;;;;;5.33;3.17;;;;;;;28.77;48.23;100398.58;1734944;81;20969;-40
2021/08/08 08:57:25;;;;;;;7.97;2.70;;;;;;;28.76;48.29;100389.42;1735043;82;21526;-41
2021/08/08 08:59:52;;;;;;;2.62;2.42;;;;;;;28.67;48.07;100386.68;1735204;81;20917;-41
2021/08/08 09:02:20;;;;;;;4.00;2.47;;;;;;;28.71;48.30;100389.04;1734861;82;20925;-40
2021/08/08 09:04:47;;;;;;;9.05;2.92;;;;;;;28.74;49.45;100386.90;1734869;81;20910;-41
2021/08/08 09:07:14;;;;;;;2.92;2.60;;;;;;;28.66;48.67;100386.30;1728582;82;20972;-42
2021/08/08 09:09:41;;;;;;;6.25;2.80;;;;;;;28.77;48.56;100381.78;1717736;82;21140;-41
2021/08/08 09:12:09;;;;;;;4.55;2.87;;;;;;;28.85;47.61;100385.06;1719039;82;21023;-40
2021/08/08 09:14:36;;;;;;;8.25;3.10;;;;;;;28.80;47.44;100377.04;1725722;81;20996;-41
2021/08/08 09:17:05;;;;;;;12.07;3.22;;;;;;;28.51;47.53;100379.31;1709703;82;21478;-40
2021/08/08 09:19:34;;;;;;;5.95;2.70;;;;;;;28.29;49.51;100383.67;1705451;83;21482;-41
2021/08/08 09:22:03;;;;;;;6.72;2.70;;;;;;;28.56;48.68;100391.36;1705298;83;22053;-41
2021/08/08 09:24:33;;;;;;;5.55;2.98;;;;;;;28.83;47.15;100383.88;1709285;83;21617;-42
2021/08/08 09:27:09;;;;;;;4.58;3.00;;;;;;;28.93;46.95;100379.34;1705519;83;20975;-42
2021/08/08 09:29:39;;;;;;;4.22;2.83;;;;;;;28.96;47.09;100380.84;1715939;82;21043;-41
2021/08/08 09:32:07;;;;;;;5.87;3.17;;;;;;;29.23;46.60;100384.43;1712831;82;21016;-41
2021/08/08 09:34:40;;;;;;;2.92;2.60;;;;;;;29.32;45.87;100385.35;1705869;83;21089;-41
2021/08/08 09:37:16;;;;;;;4.72;2.60;;;;;;;29.30;47.33;100388.16;1687018;83;21522;-41
2021/08/08 09:39:43;;;;;;;10.40;3.20;;;;;;;29.31;46.27;100393.00;1706599;82;20992;-40
2021/08/08 09:42:23;;;;;;;4.37;3.02;;;;;;;29.46;45.58;100401.33;1733671;82;21565;-41
2021/08/08 09:44:56;;;;;;;6.95;2.80;;;;;;;29.62;44.77;100402.80;1735976;81;21012;-42
2021/08/08 09:47:50;;;;;;;7.62;2.80;;;;;;;29.70;45.75;100391.38;1743307;82;21188;-40
2021/08/08 09:50:23;;;;;;;6.58;3.02;;;;;;;29.94;45.86;100400.54;1713833;82;20933;-42
2021/08/08 09:52:57;;;;;;;3.30;2.60;;;;;;;30.00;45.56;100391.90;1743074;82;20967;-42
2021/08/08 09:55:34;;;;;;;3.23;2.60;;;;;;;30.10;44.36;100388.64;1743126;81;21023;-41
2021/08/08 09:58:03;;;;;;;4.83;2.80;;;;;;;29.93;45.29;100394.83;1743369;82;20921;-42
2021/08/08 10:00:36;;;;;;;9.70;3.00;;;;;;;29.80;45.25;100395.24;1743194;81;21083;-42
2021/08/08 10:03:05;;;;;;;6.67;2.42;;;;;;;29.74;45.30;100394.06;1743004;82;21012;-41
2021/08/08 10:05:38;;;;;;;3.40;2.70;;;;;;;29.92;45.11;100398.49;1737337;81;20925;-40
2021/08/08 10:08:11;;;;;;;9.18;2.83;;;;;;;29.97;44.66;100394.88;1713497;82;20893;-42
2021/08/08 10:10:44;;;;;;;6.03;3.40;;;;;;;29.71;44.33;100398.86;1713252;82;21008;-41
2021/08/08 10:13:52;;;;;;;9.03;2.98;;;;;;;29.74;45.40;100399.39;1713597;82;20988;-40
2021/08/08 10:16:20;;;;;;;12.20;2.87;;;;;;;29.96;44.25;100401.22;1713496;82;21355;-43
2021/08/08 10:18:56;;;;;;;5.47;2.85;;;;;;;30.09;44.53;100398.98;1721802;80;20960;-41
2021/08/08 10:21:23;;;;;;;7.90;3.10;;;;;;;30.30;43.55;100396.91;1719915;82;21034;-42
2021/08/08 10:23:52;;;;;;;8.33;3.45;;;;;;;30.36;43.27;100391.77;1713561;83;20944;-41
2021/08/08 10:26:20;;;;;;;4.33;2.98;;;;;;;30.36;44.04;100390.44;1713457;83;21143;-42
2021/08/08 10:28:49;;;;;;;7.17;3.67;;;;;;;30.39;44.11;100389.30;1713494;83;21067;-42
2021/08/08 10:31:17;;;;;;;15.13;4.75;;;;;;;30.51;43.14;100405.86;1684960;83;20980;-41
2021/08/08 10:33:49;;;;;;;9.35;4.05;;;;;;;30.59;43.01;100408.55;1713584;83;20944;-42
2021/08/08 10:36:26;;;;;;;5.03;4.00;;;;;;;30.64;42.59;100406.27;1713679;83;20984;-41
2021/08/08 10:38:56;;;;;;;6.97;4.08;;;;;;;30.76;43.32;100410.81;1713580;83;21138;-42
2021/08/08 10:41:22;;;;;;;4.97;3.67;;;;;;;30.88;41.31;100415.88;1707141;83;20959;-41
2021/08/08 10:43:50;;;;;;;6.87;3.75;;;;;;;30.67;42.27;100417.95;1713739;83;21004;-41
2021/08/08 10:46:16;;;;;;;4.40;3.72;;;;;;;30.64;43.37;100418.28;1686498;83;20877;-41
2021/08/08 10:48:44;;;;;;;3.92;3.62;;;;;;;30.97;43.08;100412.20;1715691;82;20944;-42
2021/08/08 10:51:24;;;;;;;5.62;3.72;;;;;;;31.30;42.44;100424.31;1715491;83;21134;-42
2021/08/08 10:54:07;;;;;;;5.65;3.20;;;;;;;31.58;40.52;100417.83;1715273;83;20964;-42
2021/08/08 10:56:47;;;;;;;6.22;4.42;;;;;;;31.70;42.69;100413.79;1715723;83;21731;-40
2021/08/08 10:59:23;;;;;;;11.12;3.30;;;;;;;32.02;39.86;100419.30;1715563;83;20940;-42
2021/08/08 11:02:08;;;;;;;6.92;3.58;;;;;;;32.08;39.42;100426.64;1715540;83;20943;-41
2021/08/08 11:04:35;;;;;;;14.40;3.50;;;;;;;31.99;39.39;100425.85;1714720;83;21118;-40
2021/08/08 11:07:04;;;;;;;5.50;3.33;;;;;;;31.77;40.15;100436.24;1715557;83;21557;-42
2021/08/08 11:09:32;;;;;;;3.95;2.80;;;;;;;31.58;40.04;100436.55;1715583;83;21007;-41
2021/08/08 11:11:58;;;;;;;4.75;2.60;;;;;;;31.52;41.56;100438.03;1687441;83;20999;-41
2021/08/08 11:14:26;;;;;;;5.45;3.15;;;;;;;31.64;39.68;100430.52;1715695;83;21540;-41
2021/08/08 11:17:07;;;;;;;3.80;3.10;;;;;;;31.71;41.26;100426.68;1715677;82;21258;-40
2021/08/08 11:19:38;;;;;;;10.63;3.33;;;;;;;31.99;39.16;100425.85;1715605;83;20963;-41
2021/08/08 11:22:13;;;;;;;9.75;3.10;;;;;;;32.07;39.64;100435.19;1715535;83;21558;-41
2021/08/08 11:24:42;;;;;;;6.08;3.05;;;;;;;32.18;39.27;100429.13;1715593;83;21000;-41
2021/08/08 11:27:10;;;;;;;3.35;2.90;;;;;;;32.20;39.88;100427.12;1715860;83;21015;-42
2021/08/08 11:29:37;;;;;;;5.10;2.98;;;;;;;32.37;39.25;100428.78;1715646;83;21174;-41
2021/08/08 11:32:06;;;;;;;3.92;3.10;;;;;;;32.41;38.48;100429.77;1715746;83;21537;-42